Time;durP1;ratioP1;P1;durP2;ratioP2;P2;SDS_P1;SDS_P2;PMS_P1;PMS_P2;Temp;Humidity;BMP_temperature;BMP_pressure;BME280_temperature;BME280_humidity;BME280_pressure;Samples;Min_cycle;Max_cycle;Signal;HPM_P1;HPM_P2
2024/04/04 00:00:57;;;;;;;2.67;1.10;;;14.60;64.10;;;;;;5046434;28;20027;-59
2024/04/04 00:03:45;;;;;;;0.88;0.70;;;14.60;64.20;;;;;;5031165;28;20538;-59
2024/04/04 00:06:30;;;;;;;3.05;1.30;;;14.60;64.30;;;;;;5050342;28;20043;-59
2024/04/04 00:09:14;;;;;;;1.42;0.80;;;14.60;64.30;;;;;;5030956;28;20044;-57
2024/04/04 00:11:59;;;;;;;2.33;0.70;;;14.60;64.90;;;;;;5031408;28;20096;-57
2024/04/04 00:14:44;;;;;;;2.30;1.23;;;14.60;64.40;;;;;;5032135;28;20605;-58
2024/04/04 00:17:28;;;;;;;1.92;0.70;;;14.60;64.50;;;;;;5042013;28;20538;-57
2024/04/04 00:20:15;;;;;;;1.08;0.60;;;14.60;64.50;;;;;;5045048;28;20044;-58
2024/04/04 00:22:59;;;;;;;1.83;0.60;;;14.60;64.60;;;;;;5036616;28;20146;-58
2024/04/04 00:25:44;;;;;;;1.15;0.75;;;14.60;64.60;;;;;;5039397;28;20071;-58
2024/04/04 00:28:29;;;;;;;1.23;0.90;;;14.50;65.00;;;;;;5058930;28;20043;-58
2024/04/04 00:31:13;;;;;;;1.17;0.70;;;14.60;64.70;;;;;;5046718;28;20703;-58
2024/04/04 00:33:58;;;;;;;1.67;0.70;;;14.50;64.60;;;;;;5032192;28;20055;-58
2024/04/04 00:36:46;;;;;;;0.70;0.50;;;14.50;64.60;;;;;;5035062;28;20502;-58
2024/04/04 00:39:30;;;;;;;0.77;0.50;;;14.50;64.70;;;;;;5032754;28;20036;-58
2024/04/04 00:42:15;;;;;;;1.75;0.70;;;14.50;64.80;;;;;;5041531;28;20087;-58
2024/04/04 00:45:00;;;;;;;0.98;0.60;;;14.40;64.60;;;;;;5040039;28;20342;-58
2024/04/04 00:47:46;;;;;;;0.80;0.40;;;14.40;64.70;;;;;;5042016;28;20454;-57
2024/04/04 00:50:32;;;;;;;2.80;0.60;;;14.40;64.80;;;;;;5041956;28;20112;-57
2024/04/04 00:53:19;;;;;;;1.20;0.60;;;14.40;64.80;;;;;;5038001;28;20676;-58
2024/04/04 00:56:04;;;;;;;0.95;0.47;;;14.40;64.90;;;;;;5039715;28;20093;-58
2024/04/04 00:58:49;;;;;;;1.15;0.30;;;14.40;64.90;;;;;;5052144;28;20047;-58
2024/04/04 01:01:33;;;;;;;0.90;0.70;;;14.30;64.90;;;;;;5031359;28;20079;-58
2024/04/04 01:04:18;;;;;;;0.68;0.50;;;14.40;65.10;;;;;;5033338;28;20110;-58
2024/04/04 01:07:03;;;;;;;0.60;0.50;;;14.40;65.20;;;;;;5052219;28;20087;-59
2024/04/04 01:09:48;;;;;;;0.90;0.30;;;14.40;65.30;;;;;;5033992;28;20071;-58
2024/04/04 01:12:33;;;;;;;1.58;0.60;;;14.40;65.30;;;;;;5039629;28;20107;-58
2024/04/04 01:15:17;;;;;;;0.50;0.50;;;14.30;65.10;;;;;;5044013;28;20064;-58
2024/04/04 01:18:02;;;;;;;1.80;0.65;;;14.30;65.20;;;;;;5033268;28;20044;-58
2024/04/04 01:20:48;;;;;;;1.10;0.60;;;14.30;65.30;;;;;;5030709;28;20071;-58
2024/04/04 01:23:32;;;;;;;2.00;0.70;;;14.30;65.30;;;;;;5035472;28;20501;-58
2024/04/04 01:26:17;;;;;;;1.13;0.52;;;14.30;65.30;;;;;;5036912;28;20625;-58
2024/04/04 01:29:03;;;;;;;0.60;0.40;;;14.30;65.40;;;;;;5035400;28;20108;-59
2024/04/04 01:31:47;;;;;;;0.85;0.40;;;14.40;65.60;;;;;;5057061;28;20647;-58
2024/04/04 01:34:32;;;;;;;1.70;0.57;;;14.30;65.50;;;;;;5033598;28;20102;-58
2024/04/04 01:37:17;;;;;;;2.25;0.77;;;14.30;65.50;;;;;;5036125;28;20086;-64
2024/04/04 01:40:04;;;;;;;1.05;0.55;;;14.30;65.50;;;;;;5035214;28;20061;-62
2024/04/04 01:42:48;;;;;;;2.65;0.65;;;14.30;65.60;;;;;;5036035;28;20398;-63
2024/04/04 01:45:33;;;;;;;1.73;0.68;;;14.40;65.80;;;;;;5037011;28;20086;-61
2024/04/04 01:48:18;;;;;;;1.63;0.70;;;14.30;65.70;;;;;;5036343;28;20102;-62
2024/04/04 01:51:03;;;;;;;2.38;0.90;;;14.30;65.70;;;;;;5043166;28;20048;-63
2024/04/04 01:53:47;;;;;;;3.03;0.77;;;14.40;65.90;;;;;;5028665;28;20824;-61
2024/04/04 01:56:32;;;;;;;1.30;0.93;;;14.40;66.00;;;;;;5032951;28;20847;-61
2024/04/04 01:59:17;;;;;;;2.65;1.45;;;14.40;66.00;;;;;;5035172;28;20144;-60
2024/04/04 02:02:02;;;;;;;2.30;0.95;;;14.40;66.00;;;;;;5037178;28;20072;-60
2024/04/04 02:04:46;;;;;;;2.83;2.20;;;14.40;66.10;;;;;;5030750;28;20347;-60
2024/04/04 02:07:32;;;;;;;1.73;0.85;;;14.30;65.90;;;;;;5042310;28;20043;-61
2024/04/04 02:10:17;;;;;;;1.13;0.60;;;14.40;66.20;;;;;;5036051;28;20392;-61
2024/04/04 02:13:05;;;;;;;1.52;0.65;;;14.40;66.20;;;;;;5063779;28;20370;-60
2024/04/04 02:15:51;;;;;;;1.75;0.57;;;14.40;66.30;;;;;;5035044;28;20623;-60
2024/04/04 02:18:35;;;;;;;1.73;0.75;;;14.40;66.30;;;;;;5041802;28;20091;-59
2024/04/04 02:21:20;;;;;;;1.65;0.95;;;14.40;66.30;;;;;;5037477;28;20059;-58
2024/04/04 02:24:05;;;;;;;2.65;1.17;;;14.40;66.40;;;;;;5029375;28;20498;-57
2024/04/04 02:26:50;;;;;;;2.28;0.73;;;14.40;66.40;;;;;;5032496;28;20028;-59
2024/04/04 02:29:35;;;;;;;4.18;1.02;;;14.50;66.60;;;;;;5039507;28;20522;-58
2024/04/04 02:32:19;;;;;;;1.58;0.93;;;14.40;66.40;;;;;;5035363;28;20036;-59
2024/04/04 02:35:05;;;;;;;2.58;0.60;;;14.50;66.70;;;;;;5023760;28;20036;-58
2024/04/04 02:37:51;;;;;;;2.40;0.90;;;14.50;66.70;;;;;;5049033;28;20456;-56
2024/04/04 02:40:36;;;;;;;1.58;0.90;;;14.40;66.50;;;;;;5034141;28;20044;-58
2024/04/04 02:43:21;;;;;;;4.25;1.02;;;14.50;66.80;;;;;;5031561;28;20140;-58
2024/04/04 02:46:06;;;;;;;4.25;1.20;;;14.40;66.60;;;;;;5036944;28;20215;-59
2024/04/04 02:48:51;;;;;;;2.88;0.90;;;14.40;66.60;;;;;;5050651;28;20726;-58
2024/04/04 02:51:36;;;;;;;4.88;0.93;;;14.50;66.90;;;;;;5036072;28;20095;-59
2024/04/04 02:54:20;;;;;;;4.25;0.98;;;14.50;66.90;;;;;;5047674;28;20050;-62
2024/04/04 02:57:05;;;;;;;3.63;1.00;;;14.50;66.90;;;;;;5047557;28;20419;-58
2024/04/04 02:59:49;;;;;;;2.97;0.75;;;14.50;66.90;;;;;;5044630;28;20355;-59
2024/04/04 03:02:34;;;;;;;3.72;1.15;;;14.40;66.80;;;;;;5042361;28;20549;-57
2024/04/04 03:05:20;;;;;;;6.40;1.45;;;14.40;66.80;;;;;;5030192;28;20429;-61
2024/04/04 03:08:08;;;;;;;4.07;1.10;;;14.50;67.00;;;;;;5039304;28;20083;-59
2024/04/04 03:10:53;;;;;;;4.90;1.20;;;14.50;67.10;;;;;;5035288;28;20097;-58
2024/04/04 03:13:39;;;;;;;3.28;1.00;;;14.50;67.10;;;;;;5060703;28;20675;-57
2024/04/04 03:16:23;;;;;;;3.70;0.98;;;14.50;67.10;;;;;;5053481;28;20644;-58
2024/04/04 03:19:08;;;;;;;3.13;1.15;;;14.50;67.10;;;;;;5036455;28;20043;-58
2024/04/04 03:21:53;;;;;;;4.63;1.80;;;14.50;67.20;;;;;;5033711;28;20083;-58
2024/04/04 03:24:38;;;;;;;8.18;1.73;;;14.50;67.20;;;;;;5029681;28;20056;-57
2024/04/04 03:27:23;;;;;;;5.43;1.40;;;14.40;67.10;;;;;;5036368;28;20043;-58
2024/04/04 03:30:08;;;;;;;4.22;1.42;;;14.40;67.10;;;;;;5034801;28;20336;-59
2024/04/04 03:32:52;;;;;;;8.85;2.25;;;14.40;67.10;;;;;;5026261;28;20253;-59
2024/04/04 03:35:38;;;;;;;4.80;2.05;;;14.50;67.30;;;;;;5027752;28;20072;-59
2024/04/04 03:38:22;;;;;;;6.05;2.13;;;14.40;67.20;;;;;;5044073;28;20051;-58
2024/04/04 03:41:07;;;;;;;10.00;2.15;;;14.40;67.20;;;;;;5063042;28;20094;-58
2024/04/04 03:43:53;;;;;;;5.25;1.67;;;14.40;67.20;;;;;;5024643;28;20404;-63
2024/04/04 03:46:41;;;;;;;5.88;1.58;;;14.40;67.30;;;;;;5035623;28;20651;-58
2024/04/04 03:49:26;;;;;;;4.30;1.15;;;14.40;67.30;;;;;;5049101;28;20442;-57
2024/04/04 03:52:15;;;;;;;4.03;1.30;;;14.40;67.30;;;;;;5026197;28;20163;-57
2024/04/04 03:55:01;;;;;;;5.35;1.45;;;14.40;67.30;;;;;;5060135;28;20124;-59
2024/04/04 03:57:45;;;;;;;5.15;1.27;;;14.40;67.30;;;;;;5042814;28;20058;-60
2024/04/04 04:00:33;;;;;;;6.45;1.75;;;14.50;67.50;;;;;;5031756;28;20051;-59
2024/04/04 04:03:18;;;;;;;6.53;1.80;;;14.40;67.30;;;;;;5059235;28;20460;-59
2024/04/04 04:06:03;;;;;;;6.25;1.63;;;14.40;67.30;;;;;;5033196;28;20669;-58
2024/04/04 04:08:48;;;;;;;6.57;1.60;;;14.40;67.30;;;;;;5040348;28;20396;-58
2024/04/04 04:11:32;;;;;;;8.18;2.03;;;14.40;67.30;;;;;;5031483;28;20068;-59
2024/04/04 04:14:17;;;;;;;5.90;1.80;;;14.40;67.30;;;;;;5035882;28;20108;-58
2024/04/04 04:17:02;;;;;;;5.63;2.03;;;14.40;67.30;;;;;;5067585;28;20434;-58
2024/04/04 04:19:50;;;;;;;10.60;2.03;;;14.40;67.30;;;;;;5046760;28;20541;-58
2024/04/04 04:22:34;;;;;;;4.55;1.63;;;14.40;67.30;;;;;;5031585;28;20063;-57
2024/04/04 04:25:19;;;;;;;5.10;1.80;;;14.40;67.30;;;;;;5034303;28;20572;-58
2024/04/04 04:28:05;;;;;;;5.13;1.63;;;14.30;67.10;;;;;;5042223;28;20446;-57
2024/04/04 04:30:52;;;;;;;4.82;1.55;;;14.40;67.30;;;;;;5038743;28;20047;-57
2024/04/04 04:33:36;;;;;;;4.90;1.25;;;14.30;67.10;;;;;;5027880;28;20032;-58
2024/04/04 04:36:33;;;;;;;6.88;2.00;;;14.30;67.20;;;;;;5039622;28;20036;-58
2024/04/04 04:39:17;;;;;;;5.05;1.40;;;14.30;67.20;;;;;;5037274;28;20124;-58
2024/04/04 04:42:02;;;;;;;7.15;2.28;;;14.30;67.10;;;;;;5042940;28;20097;-59
2024/04/04 04:44:46;;;;;;;5.82;1.15;;;14.30;67.70;;;;;;5035264;28;20032;-59
2024/04/04 04:47:31;;;;;;;7.13;1.30;;;14.20;66.90;;;;;;5032413;28;20040;-59
2024/04/04 04:50:16;;;;;;;5.32;1.45;;;14.20;67.00;;;;;;5025428;28;20060;-59
2024/04/04 04:53:00;;;;;;;5.93;1.20;;;14.20;67.00;;;;;;5034552;28;20052;-59
2024/04/04 04:55:48;;;;;;;4.50;1.30;;;14.20;67.10;;;;;;5035090;28;20079;-58
2024/04/04 04:58:33;;;;;;;5.60;1.20;;;14.20;67.10;;;;;;5023932;28;20103;-60
2024/04/04 05:01:20;;;;;;;6.85;1.60;;;14.20;67.10;;;;;;5046458;28;20047;-58
2024/04/04 05:04:06;;;;;;;4.60;1.17;;;14.20;67.10;;;;;;5035177;28;20064;-58
2024/04/04 05:06:51;;;;;;;4.63;0.93;;;14.10;67.00;;;;;;5052289;28;20538;-58
2024/04/04 05:09:36;;;;;;;5.05;1.52;;;14.10;67.00;;;;;;5017089;28;20185;-57
2024/04/04 05:12:21;;;;;;;4.80;1.67;;;14.10;67.00;;;;;;5045618;28;20048;-59
2024/04/04 05:15:06;;;;;;;6.55;1.40;;;14.10;67.10;;;;;;5030069;28;20695;-58
2024/04/04 05:17:51;;;;;;;3.15;1.35;;;14.10;67.10;;;;;;5019234;28;20028;-58
2024/04/04 05:20:35;;;;;;;4.85;1.25;;;14.10;67.20;;;;;;5075636;28;20105;-58
2024/04/04 05:23:20;;;;;;;6.03;1.33;;;14.10;67.20;;;;;;5037719;28;20040;-58
2024/04/04 05:26:04;;;;;;;3.55;1.48;;;14.10;67.30;;;;;;5031920;28;20183;-58
2024/04/04 05:28:51;;;;;;;5.03;1.42;;;14.00;67.10;;;;;;5033095;28;20102;-57
2024/04/04 05:31:36;;;;;;;3.17;0.85;;;14.00;67.20;;;;;;5032680;28;20098;-58
2024/04/04 05:34:22;;;;;;;2.67;0.90;;;14.00;67.20;;;;;;5032706;28;20040;-59
2024/04/04 05:37:06;;;;;;;7.07;1.42;;;14.00;67.30;;;;;;5029656;28;20477;-58
2024/04/04 05:39:51;;;;;;;5.50;1.52;;;14.00;67.30;;;;;;5036547;28;20067;-58
2024/04/04 05:42:36;;;;;;;4.40;1.10;;;14.00;67.40;;;;;;5022961;28;20123;-58
2024/04/04 05:45:20;;;;;;;3.53;0.95;;;14.00;67.50;;;;;;5035371;28;20040;-58
2024/04/04 05:48:06;;;;;;;3.90;1.08;;;14.00;67.50;;;;;;5028127;28;20483;-58
2024/04/04 05:50:55;;;;;;;4.25;0.98;;;14.00;67.50;;;;;;5032098;28;20094;-57
2024/04/04 05:53:40;;;;;;;3.58;0.90;;;14.00;67.60;;;;;;5037153;28;20271;-57
2024/04/04 05:56:24;;;;;;;9.48;3.28;;;14.00;67.60;;;;;;5025954;28;20051;-57
2024/04/04 05:59:09;;;;;;;5.38;1.02;;;14.00;67.60;;;;;;5037158;28;20056;-57
2024/04/04 06:01:54;;;;;;;3.55;1.13;;;14.00;67.60;;;;;;5043314;28;20829;-57
2024/04/04 06:04:39;;;;;;;9.73;4.00;;;14.00;67.70;;;;;;5033006;28;20076;-57
2024/04/04 06:07:24;;;;;;;11.93;4.53;;;14.00;67.70;;;;;;5031381;28;20466;-56
2024/04/04 06:10:09;;;;;;;8.60;3.85;;;14.00;67.80;;;;;;5053757;28;20487;-56
2024/04/04 06:12:53;;;;;;;8.60;4.75;;;14.00;67.80;;;;;;5043553;28;20042;-56
2024/04/04 06:15:38;;;;;;;7.93;3.90;;;14.00;67.80;;;;;;5043287;28;20693;-54
2024/04/04 06:18:23;;;;;;;10.73;5.70;;;14.10;68.00;;;;;;5060115;28;20557;-56
2024/04/04 06:21:07;;;;;;;7.57;3.33;;;14.10;68.20;;;;;;5063088;28;20079;-56
2024/04/04 06:23:52;;;;;;;6.55;3.85;;;14.10;68.20;;;;;;5033420;28;20114;-57
2024/04/04 06:26:37;;;;;;;7.22;3.33;;;14.10;68.20;;;;;;5039285;28;20043;-57
2024/04/04 06:29:23;;;;;;;7.53;3.10;;;14.10;68.20;;;;;;5026340;28;20055;-57
2024/04/04 06:32:08;;;;;;;8.95;3.40;;;14.10;68.20;;;;;;5031242;28;20090;-58
2024/04/04 06:34:53;;;;;;;7.93;2.80;;;14.10;68.20;;;;;;5023914;28;20048;-59
2024/04/04 06:37:37;;;;;;;6.15;3.28;;;14.10;68.20;;;;;;5034574;28;20578;-59
2024/04/04 06:40:22;;;;;;;7.15;2.35;;;14.10;68.20;;;;;;5066227;28;20054;-59
2024/04/04 06:43:07;;;;;;;5.43;2.28;;;14.10;68.20;;;;;;5027817;28;20053;-59
2024/04/04 06:45:51;;;;;;;5.13;3.05;;;14.10;68.20;;;;;;5048134;28;20126;-58
2024/04/04 06:48:40;;;;;;;5.63;2.70;;;14.10;68.20;;;;;;5036252;28;20048;-58
2024/04/04 06:51:25;;;;;;;6.63;2.08;;;14.20;68.40;;;;;;5047553;28;20427;-58
2024/04/04 06:54:10;;;;;;;5.38;1.95;;;14.10;68.30;;;;;;5030904;28;20068;-60
2024/04/04 06:56:57;;;;;;;4.90;1.90;;;14.10;68.30;;;;;;5064039;28;20103;-58
2024/04/04 06:59:41;;;;;;;6.07;2.00;;;14.10;68.30;;;;;;5032088;28;20652;-58
2024/04/04 07:02:25;;;;;;;6.68;2.00;;;14.10;68.30;;;;;;5028152;28;20537;-59
2024/04/04 07:05:10;;;;;;;3.85;1.50;;;14.20;68.50;;;;;;5039380;28;20047;-59
2024/04/04 07:07:55;;;;;;;6.68;2.03;;;14.10;68.30;;;;;;5045336;28;20239;-58
2024/04/04 07:10:40;;;;;;;7.15;2.28;;;14.10;68.40;;;;;;5066784;28;20055;-58
2024/04/04 07:13:24;;;;;;;6.63;2.35;;;14.20;68.50;;;;;;5027887;28;20067;-59
2024/04/04 07:16:12;;;;;;;4.72;2.35;;;14.20;68.60;;;;;;5038969;28;20144;-58
2024/04/04 07:18:57;;;;;;;6.38;2.05;;;14.10;68.40;;;;;;5048609;28;20454;-58
2024/04/04 07:21:44;;;;;;;5.28;1.77;;;14.20;68.60;;;;;;5026495;28;20060;-57
2024/04/04 07:24:28;;;;;;;3.72;1.52;;;14.20;68.60;;;;;;5031030;28;20052;-57
2024/04/04 07:27:13;;;;;;;6.03;1.90;;;14.20;68.60;;;;;;5051813;28;20048;-57
2024/04/04 07:29:58;;;;;;;8.25;2.70;;;14.20;68.60;;;;;;5029919;28;20044;-57
2024/04/04 07:32:43;;;;;;;8.07;3.38;;;14.20;68.60;;;;;;5019829;28;20087;-57
2024/04/04 07:35:28;;;;;;;6.72;2.47;;;14.20;68.60;;;;;;5032378;28;20039;-57
2024/04/04 07:38:13;;;;;;;6.90;2.63;;;14.30;68.80;;;;;;5070070;28;20423;-59
2024/04/04 07:41:06;;;;;;;7.32;2.85;;;14.30;68.80;;;;;;5034156;28;20096;-59
2024/04/04 07:43:54;;;;;;;6.10;2.00;;;14.30;68.70;;;;;;5051851;28;20044;-59
2024/04/04 07:46:39;;;;;;;10.20;2.42;;;14.40;68.70;;;;;;5027415;28;20035;-59
2024/04/04 07:49:24;;;;;;;9.30;2.80;;;14.50;68.70;;;;;;5050643;28;20036;-59
2024/04/04 07:52:09;;;;;;;9.27;3.50;;;14.60;68.70;;;;;;5042369;28;20095;-59
2024/04/04 07:54:54;;;;;;;8.80;3.08;;;14.70;68.50;;;;;;5031039;28;20040;-59
2024/04/04 07:57:39;;;;;;;8.75;2.40;;;14.80;68.90;;;;;;5027455;28;20039;-58
2024/04/04 08:00:25;;;;;;;6.05;2.00;;;14.90;68.30;;;;;;5027163;28;20052;-58
2024/04/04 08:03:10;;;;;;;9.10;3.25;;;15.00;68.20;;;;;;5037703;28;20522;-58
2024/04/04 08:05:55;;;;;;;7.97;2.20;;;15.10;68.10;;;;;;5038503;28;20044;-58
2024/04/04 08:08:40;;;;;;;6.75;2.15;;;15.20;67.90;;;;;;5029236;28;20654;-58
2024/04/04 08:11:25;;;;;;;6.57;2.55;;;15.30;67.80;;;;;;5024307;28;20079;-59
2024/04/04 08:14:11;;;;;;;7.97;2.25;;;15.50;67.90;;;;;;5018849;28;20557;-58
2024/04/04 08:16:56;;;;;;;8.50;1.88;;;15.60;67.80;;;;;;5034187;28;20565;-58
2024/04/04 08:19:40;;;;;;;7.50;2.28;;;15.70;67.60;;;;;;5024797;28;20191;-58
2024/04/04 08:22:29;;;;;;;7.00;2.25;;;15.80;67.50;;;;;;5026942;28;20090;-57
2024/04/04 08:25:14;;;;;;;5.03;1.77;;;15.90;67.40;;;;;;5030872;28;20483;-58
2024/04/04 08:27:59;;;;;;;7.10;1.75;;;15.90;67.30;;;;;;5043706;28;20802;-59
2024/04/04 08:30:44;;;;;;;8.05;2.22;;;16.00;67.20;;;;;;5041600;28;20386;-57
2024/04/04 08:33:30;;;;;;;7.00;2.78;;;16.10;67.20;;;;;;5041574;28;20043;-58
2024/04/04 08:36:15;;;;;;;5.72;1.65;;;16.20;67.10;;;;;;5031665;28;20115;-57
2024/04/04 08:39:02;;;;;;;6.22;2.38;;;16.30;67.10;;;;;;5034284;28;20106;-57
2024/04/04 08:41:48;;;;;;;4.45;1.67;;;16.30;66.90;;;;;;5041381;28;20060;-59
2024/04/04 08:44:34;;;;;;;7.47;1.48;;;16.40;66.90;;;;;;5032498;28;20074;-58
2024/04/04 08:47:20;;;;;;;8.57;2.10;;;16.40;66.70;;;;;;5033912;28;20679;-58
2024/04/04 08:50:09;;;;;;;4.13;1.75;;;16.50;66.70;;;;;;5038915;28;20117;-58
2024/04/04 08:52:54;;;;;;;5.80;1.60;;;16.50;66.60;;;;;;5044779;28;20040;-59
2024/04/04 08:55:40;;;;;;;3.40;1.38;;;16.40;66.30;;;;;;5029922;28;20232;-58
2024/04/04 08:58:25;;;;;;;5.05;1.13;;;16.50;66.40;;;;;;5030025;28;20130;-60
2024/04/04 09:01:10;;;;;;;9.02;1.83;;;16.50;66.30;;;;;;5038066;28;20060;-58
2024/04/04 09:03:55;;;;;;;6.20;2.17;;;16.40;66.10;;;;;;5045710;28;20101;-58
2024/04/04 09:06:40;;;;;;;4.72;1.88;;;16.40;66.00;;;;;;5029410;28;20525;-59
2024/04/04 09:09:25;;;;;;;2.00;0.90;;;16.40;66.00;;;;;;5063938;28;20161;-59
2024/04/04 09:12:10;;;;;;;5.85;1.30;;;16.40;65.90;;;;;;5029577;28;20091;-57
2024/04/04 09:14:56;;;;;;;5.13;1.63;;;16.50;66.00;;;;;;5033534;28;20036;-58
2024/04/04 09:17:41;;;;;;;5.38;1.58;;;16.60;65.90;;;;;;5063118;28;20710;-58
2024/04/04 09:20:26;;;;;;;4.63;1.50;;;16.60;65.60;;;;;;5025911;28;20036;-57
2024/04/04 09:23:10;;;;;;;8.48;2.30;;;16.80;65.70;;;;;;5034795;28;20514;-57
2024/04/04 09:25:55;;;;;;;6.90;3.05;;;16.80;65.40;;;;;;5039929;28;20059;-58
2024/04/04 09:28:40;;;;;;;7.13;1.33;;;16.90;65.30;;;;;;5024639;28;20072;-57
2024/04/04 09:31:29;;;;;;;6.20;1.50;;;17.00;65.30;;;;;;5035581;28;20102;-57
2024/04/04 09:34:14;;;;;;;6.80;2.70;;;17.10;65.30;;;;;;5040877;28;20548;-57
2024/04/04 09:36:59;;;;;;;4.90;1.48;;;17.10;65.10;;;;;;5040263;28;20071;-57
2024/04/04 09:39:53;;;;;;;8.07;1.65;;;17.10;65.10;;;;;;5021313;28;20103;-58
2024/04/04 09:42:41;;;;;;;9.18;1.85;;;17.10;65.00;;;;;;5032194;28;20598;-58
2024/04/04 09:45:27;;;;;;;5.35;1.15;;;17.10;65.10;;;;;;5032455;28;20187;-58
2024/04/04 09:48:13;;;;;;;4.65;1.40;;;17.10;65.00;;;;;;5056247;28;20222;-58
2024/04/04 09:50:59;;;;;;;5.13;1.10;;;17.10;65.00;;;;;;5066529;28;20113;-57
2024/04/04 09:53:46;;;;;;;8.00;2.22;;;17.20;65.00;;;;;;5036980;28;20510;-58
2024/04/04 09:56:32;;;;;;;6.88;1.65;;;17.20;64.90;;;;;;5047286;28;20100;-58
2024/04/04 09:59:29;;;;;;;3.10;1.25;;;17.30;65.00;;;;;;5036838;28;20624;-58
2024/04/04 10:02:14;;;;;;;7.80;1.90;;;17.30;64.70;;;;;;5039095;28;20103;-57
2024/04/04 10:04:59;;;;;;;7.60;2.50;;;17.40;64.80;;;;;;5046458;28;20047;-58
2024/04/04 10:07:45;;;;;;;4.47;1.25;;;17.40;64.60;;;;;;5048496;28;20043;-58
2024/04/04 10:10:29;;;;;;;6.38;1.77;;;17.50;64.70;;;;;;5041428;28;20047;-59
2024/04/04 10:13:14;;;;;;;7.65;2.38;;;17.60;64.70;;;;;;5030484;28;20127;-58
2024/04/04 10:16:01;;;;;;;4.15;1.30;;;17.70;64.70;;;;;;5042031;28;20628;-58
2024/04/04 10:18:52;;;;;;;5.30;1.20;;;17.80;64.70;;;;;;5045835;28;20059;-58
2024/04/04 10:21:37;;;;;;;11.25;1.80;;;17.90;64.60;;;;;;5033580;28;20510;-57
2024/04/04 10:24:26;;;;;;;7.32;1.63;;;17.90;64.50;;;;;;5051504;28;20585;-59
2024/04/04 10:27:12;;;;;;;7.15;1.90;;;18.00;64.50;;;;;;5037310;28;20047;-58
2024/04/04 10:29:57;;;;;;;4.93;1.80;;;18.10;64.50;;;;;;5020458;28;20589;-58
2024/04/04 10:32:42;;;;;;;6.70;1.58;;;18.20;64.60;;;;;;5027301;28;20080;-57
2024/04/04 10:35:26;;;;;;;6.25;1.52;;;18.30;64.50;;;;;;5042799;28;20481;-58
2024/04/04 10:38:14;;;;;;;4.20;1.60;;;18.40;64.50;;;;;;5048224;28;20043;-54
2024/04/04 10:40:59;;;;;;;4.97;1.88;;;18.50;64.30;;;;;;5033930;28;20142;-58
2024/04/04 10:43:44;;;;;;;5.65;1.70;;;18.60;64.70;;;;;;5042032;28;20404;-58
2024/04/04 10:46:32;;;;;;;6.65;1.88;;;18.70;64.10;;;;;;5036722;28;20040;-59
2024/04/04 10:49:18;;;;;;;9.35;2.72;;;18.70;63.90;;;;;;5036052;28;20067;-55
2024/04/04 10:52:04;;;;;;;7.07;1.30;;;18.80;64.10;;;;;;5039555;28;20138;-55
2024/04/04 10:54:49;;;;;;;4.63;2.30;;;18.80;64.00;;;;;;5045457;28;20123;-57
2024/04/04 10:57:38;;;;;;;4.55;1.75;;;18.90;64.20;;;;;;5045047;28;20048;-56
2024/04/04 11:00:28;;;;;;;4.38;1.20;;;19.00;64.30;;;;;;5045390;28;20105;-59
2024/04/04 11:03:13;;;;;;;4.28;1.48;;;19.20;64.40;;;;;;5040018;28;20373;-56
2024/04/04 11:05:57;;;;;;;3.60;0.90;;;19.40;64.30;;;;;;5029637;28;20090;-58
2024/04/04 11:08:46;;;;;;;5.57;1.85;;;19.60;64.20;;;;;;5031113;28;20083;-57
2024/04/04 11:11:32;;;;;;;3.60;1.13;;;19.70;64.10;;;;;;5041227;28;20334;-57
2024/04/04 11:14:24;;;;;;;4.78;1.40;;;20.00;64.20;;;;;;5049141;28;20557;-57
2024/04/04 11:17:09;;;;;;;3.70;1.55;;;20.10;63.80;;;;;;5047318;28;20572;-57
2024/04/04 11:20:14;;;;;;;3.00;0.88;;;20.30;63.80;;;;;;5035897;28;20043;-57
2024/04/04 11:22:58;;;;;;;3.22;0.85;;;20.50;63.50;;;;;;5053849;28;20047;-58
2024/04/04 11:25:43;;;;;;;3.00;1.20;;;20.70;63.50;;;;;;5029902;28;20239;-57
2024/04/04 11:28:28;;;;;;;4.47;1.08;;;20.80;63.20;;;;;;5068913;28;20075;-58
2024/04/04 11:31:13;;;;;;;2.53;1.00;;;20.90;63.00;;;;;;5042684;28;20595;-57
2024/04/04 11:33:58;;;;;;;4.10;0.90;;;21.10;63.00;;;;;;5036655;28;20554;-58
2024/04/04 11:36:44;;;;;;;3.72;1.00;;;21.20;62.90;;;;;;5063724;28;20098;-58
2024/04/04 11:39:29;;;;;;;6.57;1.88;;;21.20;62.60;;;;;;5035950;28;20059;-56
2024/04/04 11:42:14;;;;;;;3.38;1.33;;;21.30;62.60;;;;;;5033646;28;20475;-56
2024/04/04 11:44:58;;;;;;;4.32;1.50;;;21.40;62.50;;;;;;5047671;28;20118;-57
2024/04/04 11:47:46;;;;;;;5.63;1.33;;;21.50;62.40;;;;;;5055975;28;20518;-58
2024/04/04 11:50:31;;;;;;;3.45;1.30;;;21.60;62.40;;;;;;5061164;28;20274;-57
2024/04/04 11:53:16;;;;;;;3.60;1.40;;;21.70;62.30;;;;;;5037238;28;20605;-57
2024/04/04 11:56:01;;;;;;;5.50;1.33;;;21.80;62.30;;;;;;5031345;28;20071;-56
2024/04/04 11:58:45;;;;;;;3.70;1.05;;;21.80;62.10;;;;;;5023620;28;20149;-57
2024/04/04 12:01:30;;;;;;;4.20;0.82;;;21.80;62.00;;;;;;5040940;28;20663;-57
2024/04/04 12:04:15;;;;;;;3.90;1.58;;;21.80;61.90;;;;;;5044713;28;20047;-57
2024/04/04 12:07:00;;;;;;;3.88;1.52;;;21.90;62.00;;;;;;5035856;28;20070;-58
2024/04/04 12:09:44;;;;;;;1.73;1.00;;;22.00;61.90;;;;;;5032222;28;20723;-58
2024/04/04 12:12:29;;;;;;;2.03;1.00;;;22.00;61.70;;;;;;5054613;28;20166;-57
2024/04/04 12:15:14;;;;;;;2.78;0.70;;;22.20;61.70;;;;;;5032472;28;20589;-56
2024/04/04 12:21:03;;;;;;;4.03;1.05;;;22.40;61.50;;;;;;5028174;28;20546;-57
2024/04/04 12:23:48;;;;;;;2.15;1.08;;;22.60;61.50;;;;;;5034931;28;20110;-57
2024/04/04 12:26:33;;;;;;;2.67;1.08;;;22.70;61.50;;;;;;5058143;28;20337;-57
2024/04/04 12:29:19;;;;;;;3.15;0.77;;;22.80;61.40;;;;;;5037745;28;20518;-57
2024/04/04 12:32:04;;;;;;;2.47;0.88;;;22.90;61.20;;;;;;5040761;28;20056;-57
2024/04/04 12:34:49;;;;;;;1.88;0.80;;;23.00;61.10;;;;;;5045575;28;20829;-57
2024/04/04 12:37:35;;;;;;;2.60;0.70;;;23.10;61.10;;;;;;5034298;28;20048;-57
2024/04/04 12:40:20;;;;;;;2.50;0.80;;;23.20;61.00;;;;;;5036911;28;20457;-56
2024/04/04 12:43:04;;;;;;;3.55;1.60;;;23.40;61.10;;;;;;5034681;28;20044;-57
2024/04/04 12:45:49;;;;;;;3.25;0.75;;;23.40;60.90;;;;;;5036776;28;20128;-57
2024/04/04 12:48:37;;;;;;;2.90;0.90;;;23.40;61.30;;;;;;5027803;28;20099;-56
2024/04/04 12:51:21;;;;;;;1.95;0.77;;;23.40;60.60;;;;;;5060496;28;20048;-57
2024/04/04 12:54:07;;;;;;;1.33;0.70;;;23.40;60.60;;;;;;5041208;28;20598;-57
2024/04/04 12:56:51;;;;;;;1.88;0.77;;;23.40;60.60;;;;;;5062291;28;20433;-55
2024/04/04 12:59:37;;;;;;;1.80;0.70;;;23.40;60.60;;;;;;5033043;28;20060;-57
2024/04/04 13:02:21;;;;;;;3.08;0.85;;;23.40;60.50;;;;;;5063165;28;20529;-56
2024/04/04 13:05:06;;;;;;;1.23;0.55;;;23.40;60.30;;;;;;5032741;28;20067;-55
2024/04/04 13:07:52;;;;;;;1.02;0.60;;;23.40;60.10;;;;;;5037607;28;20107;-56
2024/04/04 13:10:36;;;;;;;1.65;0.63;;;23.40;60.00;;;;;;5040329;28;20336;-55
2024/04/04 13:13:22;;;;;;;1.50;0.80;;;23.30;59.80;;;;;;5039419;28;20462;-56
2024/04/04 13:16:07;;;;;;;2.97;0.98;;;23.30;59.80;;;;;;5049632;28;20119;-58
2024/04/04 13:18:52;;;;;;;1.45;0.65;;;23.30;59.90;;;;;;5045007;28;20398;-58
2024/04/04 13:21:36;;;;;;;2.03;0.82;;;23.40;60.10;;;;;;5021902;28;20131;-58
2024/04/04 13:24:21;;;;;;;1.25;0.60;;;23.60;60.10;;;;;;5035941;28;20048;-57
2024/04/04 13:27:06;;;;;;;1.92;0.60;;;23.80;60.10;;;;;;5051074;28;20089;-58
2024/04/04 13:29:50;;;;;;;2.35;0.82;;;24.00;60.20;;;;;;5035776;28;20044;-58
2024/04/04 13:32:35;;;;;;;1.90;0.70;;;24.00;59.90;;;;;;5034969;28;20203;-58
2024/04/04 13:35:19;;;;;;;1.70;0.80;;;24.00;59.80;;;;;;5038919;28;20363;-57
2024/04/04 13:38:04;;;;;;;2.40;0.50;;;24.00;59.80;;;;;;5045707;28;20111;-57
2024/04/04 13:40:49;;;;;;;3.00;0.95;;;24.00;59.80;;;;;;5063576;28;20134;-57
2024/04/04 13:43:34;;;;;;;2.20;1.00;;;24.00;59.80;;;;;;5039712;28;20049;-57
2024/04/04 13:46:19;;;;;;;2.30;0.70;;;23.90;59.60;;;;;;5035093;28;20091;-58
2024/04/04 13:49:03;;;;;;;1.33;0.88;;;23.90;59.60;;;;;;5039923;28;20042;-57
2024/04/04 13:51:48;;;;;;;3.10;1.13;;;23.90;59.50;;;;;;5032349;28;20067;-57
2024/04/04 13:54:33;;;;;;;2.65;1.20;;;23.90;59.40;;;;;;5035737;28;20039;-58
2024/04/04 13:57:17;;;;;;;3.30;0.98;;;23.90;59.30;;;;;;5057856;28;20765;-57
2024/04/04 14:00:05;;;;;;;4.03;1.10;;;23.80;59.10;;;;;;5045591;28;20199;-58
2024/04/04 14:02:54;;;;;;;2.30;0.93;;;23.80;59.10;;;;;;5038937;28;20438;-57
2024/04/04 14:05:38;;;;;;;3.92;1.42;;;23.80;59.10;;;;;;5031228;28;20044;-57
2024/04/04 14:08:23;;;;;;;3.58;1.13;;;23.80;59.00;;;;;;5047280;28;20277;-58
2024/04/04 14:11:08;;;;;;;2.97;1.20;;;23.90;59.00;;;;;;5036520;28;20098;-58
2024/04/04 14:13:53;;;;;;;4.20;1.60;;;23.90;58.90;;;;;;5039760;28;20087;-57
2024/04/04 14:16:37;;;;;;;2.47;1.33;;;23.90;58.70;;;;;;5055823;28;20087;-58
2024/04/04 14:19:22;;;;;;;5.50;1.50;;;23.90;58.50;;;;;;5044895;28;20333;-57
2024/04/04 14:22:08;;;;;;;4.13;1.80;;;23.90;58.40;;;;;;5034697;28;20581;-57